KDLN/DLN METAR and TAF weather

Enter ICAO airport designator
Station Type Date Time Source
KDLN METAR 2020/02/22 05:53 UTC NOAA

KDLN 220553Z AUTO 21014KT 10SM CLR M06/M14 A3010 RMK AO2 SLP245 T10611139 10006 21067 58000


Station Type Date Time Source
KDLN Decoded METAR 2020/02/22 05:53 UTC NOAA

DILLON AIRPORT, MT, United States (KDLN) 45-15N 112-33W 1591M
Feb 22, 2020 - 12:53 AM EST / 2020.02.22 0553 UTC
Wind: from the SSW (210 degrees) at 16 MPH (14 KT):0
Visibility: 10 mile(s):0
Sky conditions: clear
Temperature: 21.0 F (-6.1 C)
Windchill: 6 F (-14 C):1
Dew Point: 7.0 F (-13.9 C)
Relative Humidity: 53%
Pressure (altimeter): 30.1 in. Hg (1019 hPa)
Pressure tendency: 0.00 inches (0.0 hPa) lower than three hours ago
ob: KDLN 220553Z AUTO 21014KT 10SM CLR M06/M14 A3010 RMK AO2 SLP245 T10611139 10006 21067 58000
cycle: 6

Station Type Date Time Source
KDLN TAF UTC NOAA

Error!

Example: see airport list